Snav Lazio — IBUH — position and weather

sailwx.info

Track history (hours):
 
Tides and Currents Weather Stations Pressure Air Temp Water Temp Dewpoint Dewpoint Depression Visibility Wind Speed Wind Dir Waves Ship Positions

Snav Lazio

Last reported at 2016-Oct-01 15:32 UTC. Time now 2016-Oct-01 22:20 UTC.
Position N 40°50' E 014°16'.

Length 162 m; draft 6 m.

Type: Passenger vessel. MMSI: 247163100.

Date/timePositionNaut miles runAvg speedWind from/ knotsBaromVisibWave heightAir tempDewpointWater temp
2016-Oct-01 15:32N 40°50' E 014°16'137 7.1
2016-Sep-30 20:11N 38°38' E 013°34'3111.8
2016-Sep-30 17:33N 38°08' E 013°22'0 0.0
2016-Sep-30 16:33N 38°08' E 013°22'0 0.0
2016-Sep-30 14:33N 38°08' E 013°22'0 0.0
2016-Sep-30 13:33N 38°08' E 013°22'0 0.0
2016-Sep-30 10:33N 38°08' E 013°22'0 0.0
2016-Sep-30 08:33N 38°08' E 013°22'0 0.0
2016-Sep-30 06:33N 38°08' E 013°22'12 4.0
2016-Sep-30 03:33N 38°19' E 013°28'1717.0
2016-Sep-30 02:33N 38°36' E 013°32'14 0.4
2016-Sep-28 19:33N 38°22' E 013°29'16 5.2
2016-Sep-28 16:34N 38°08' E 013°22'0 0.0
2016-Sep-28 15:34N 38°08' E 013°22'0 0.0
2016-Sep-28 12:34N 38°08' E 013°22'0 0.0
2016-Sep-28 08:34N 38°08' E 013°22'19 3.7
2016-Sep-28 03:34N 38°26' E 013°29'1716.8
2016-Sep-28 02:33N 38°42' E 013°34'7 0.2
2016-Sep-26 20:33N 38°36' E 013°33'1716.9
2016-Sep-26 19:33N 38°19' E 013°28'12 3.1
2016-Sep-26 15:33N 38°08' E 013°22'0 0.0
2016-Sep-26 13:33N 38°08' E 013°22'0 0.0
2016-Sep-26 11:34N 38°08' E 013°22'0 0.0
2016-Sep-26 08:33N 38°08' E 013°22'26 4.4
2016-Sep-26 02:33N 38°33' E 013°31'1717.0
2016-Sep-26 01:33N 38°50' E 013°36'27 0.9
2016-Sep-24 19:34N 38°23' E 013°30'1616.2
2016-Sep-24 18:33N 38°07' E 013°23'1 1.3
2016-Sep-24 17:33N 38°08' E 013°22'0 0.0
2016-Sep-24 16:33N 38°08' E 013°22'0 0.0
2016-Sep-24 14:33N 38°08' E 013°22'0 0.0
2016-Sep-24 12:33N 38°08' E 013°22'0 0.0
2016-Sep-24 10:33N 38°08' E 013°22'0 0.0
2016-Sep-24 09:33N 38°08' E 013°22'16 2.7
2016-Sep-24 03:33N 38°23' E 013°29'1716.6
2016-Sep-24 02:34N 38°39' E 013°33'1 0.0
2016-Sep-22 20:22N 38°38' E 013°34'31 4.0
2016-Sep-22 12:33N 38°08' E 013°22'7 0.9
2016-Sep-22 04:33N 38°14' E 013°26'1615.8
2016-Sep-22 03:33N 38°29' E 013°30'  
Track history (hours):
 
Tides and Currents Weather Stations Pressure Air Temp Water Temp Dewpoint Dewpoint Depression Visibility Wind Speed Wind Dir Waves Ship Positions

Snav Lazio

Last reported at 2016-Oct-01 15:32 UTC. Time now 2016-Oct-01 22:20 UTC.
Position N 40°50' E 014°16'.

Length 162 m; draft 6 m.

Type: Passenger vessel. MMSI: 247163100.

Date/timePositionNaut miles runAvg speedWind from/ knotsBaromVisibWave heightAir tempDewpointWater temp
2016-Oct-01 15:32N 40°50' E 014°16'137 7.1
2016-Sep-30 20:11N 38°38' E 013°34'3111.8
2016-Sep-30 17:33N 38°08' E 013°22'0 0.0
2016-Sep-30 16:33N 38°08' E 013°22'0 0.0
2016-Sep-30 14:33N 38°08' E 013°22'0 0.0
2016-Sep-30 13:33N 38°08' E 013°22'0 0.0
2016-Sep-30 10:33N 38°08' E 013°22'0 0.0
2016-Sep-30 08:33N 38°08' E 013°22'0 0.0
2016-Sep-30 06:33N 38°08' E 013°22'12 4.0
2016-Sep-30 03:33N 38°19' E 013°28'1717.0
2016-Sep-30 02:33N 38°36' E 013°32'14 0.4
2016-Sep-28 19:33N 38°22' E 013°29'16 5.2
2016-Sep-28 16:34N 38°08' E 013°22'0 0.0
2016-Sep-28 15:34N 38°08' E 013°22'0 0.0
2016-Sep-28 12:34N 38°08' E 013°22'0 0.0
2016-Sep-28 08:34N 38°08' E 013°22'19 3.7
2016-Sep-28 03:34N 38°26' E 013°29'1716.8
2016-Sep-28 02:33N 38°42' E 013°34'7 0.2
2016-Sep-26 20:33N 38°36' E 013°33'1716.9
2016-Sep-26 19:33N 38°19' E 013°28'12 3.1
2016-Sep-26 15:33N 38°08' E 013°22'0 0.0
2016-Sep-26 13:33N 38°08' E 013°22'0 0.0
2016-Sep-26 11:34N 38°08' E 013°22'0 0.0
2016-Sep-26 08:33N 38°08' E 013°22'26 4.4
2016-Sep-26 02:33N 38°33' E 013°31'1717.0
2016-Sep-26 01:33N 38°50' E 013°36'27 0.9
2016-Sep-24 19:34N 38°23' E 013°30'1616.2
2016-Sep-24 18:33N 38°07' E 013°23'1 1.3
2016-Sep-24 17:33N 38°08' E 013°22'0 0.0
2016-Sep-24 16:33N 38°08' E 013°22'0 0.0
2016-Sep-24 14:33N 38°08' E 013°22'0 0.0
2016-Sep-24 12:33N 38°08' E 013°22'0 0.0
2016-Sep-24 10:33N 38°08' E 013°22'0 0.0
2016-Sep-24 09:33N 38°08' E 013°22'16 2.7
2016-Sep-24 03:33N 38°23' E 013°29'1716.6
2016-Sep-24 02:34N 38°39' E 013°33'1 0.0
2016-Sep-22 20:22N 38°38' E 013°34'31 4.0
2016-Sep-22 12:33N 38°08' E 013°22'7 0.9
2016-Sep-22 04:33N 38°14' E 013°26'1615.8
2016-Sep-22 03:33N 38°29' E 013°30'  

Dump ship's entire track history